sensor_id;sensor_type;location;lat;lon;timestamp;P1;durP1;ratioP1;P2;durP2;ratioP2
53890;SDS011;41337;51.400;-2.342;2022-10-15T00:00:13;18.95;;;9.15;;
53890;SDS011;41337;51.400;-2.342;2022-10-15T00:05:14;16.63;;;8.55;;
53890;SDS011;41337;51.400;-2.342;2022-10-15T00:10:15;15.40;;;8.70;;
53890;SDS011;41337;51.400;-2.342;2022-10-15T00:15:16;10.10;;;7.25;;
53890;SDS011;41337;51.400;-2.342;2022-10-15T00:20:17;12.77;;;8.35;;
53890;SDS011;41337;51.400;-2.342;2022-10-15T00:25:18;16.85;;;8.07;;
53890;SDS011;41337;51.400;-2.342;2022-10-15T00:30:19;12.98;;;7.75;;
53890;SDS011;41337;51.400;-2.342;2022-10-15T00:35:20;17.85;;;7.22;;
53890;SDS011;41337;51.400;-2.342;2022-10-15T00:40:21;8.98;;;5.55;;
53890;SDS011;41337;51.400;-2.342;2022-10-15T00:45:22;11.40;;;6.47;;
53890;SDS011;41337;51.400;-2.342;2022-10-15T00:50:23;14.00;;;5.72;;
53890;SDS011;41337;51.400;-2.342;2022-10-15T00:55:35;16.35;;;6.82;;
53890;SDS011;41337;51.400;-2.342;2022-10-15T01:00:41;13.40;;;6.38;;
53890;SDS011;41337;51.400;-2.342;2022-10-15T01:05:42;10.85;;;6.47;;
53890;SDS011;41337;51.400;-2.342;2022-10-15T01:16:48;7.43;;;5.07;;
53890;SDS011;41337;51.400;-2.342;2022-10-15T01:22:16;16.23;;;6.78;;
53890;SDS011;41337;51.400;-2.342;2022-10-15T01:27:45;9.77;;;5.82;;
53890;SDS011;41337;51.400;-2.342;2022-10-15T01:43:12;15.23;;;5.55;;
53890;SDS011;41337;51.400;-2.342;2022-10-15T01:48:21;10.15;;;5.20;;
53890;SDS011;41337;51.400;-2.342;2022-10-15T01:53:25;11.57;;;5.00;;
53890;SDS011;41337;51.400;-2.342;2022-10-15T01:58:33;14.32;;;4.93;;
53890;SDS011;41337;51.400;-2.342;2022-10-15T02:03:49;9.55;;;4.10;;
53890;SDS011;41337;51.400;-2.342;2022-10-15T02:14:14;9.90;;;4.10;;
53890;SDS011;41337;51.400;-2.342;2022-10-15T02:19:54;7.93;;;4.20;;
53890;SDS011;41337;51.400;-2.342;2022-10-15T02:25:13;10.70;;;4.57;;
53890;SDS011;41337;51.400;-2.342;2022-10-15T02:30:25;8.18;;;4.18;;
53890;SDS011;41337;51.400;-2.342;2022-10-15T02:35:28;10.77;;;3.60;;
53890;SDS011;41337;51.400;-2.342;2022-10-15T02:40:35;10.43;;;3.97;;
53890;SDS011;41337;51.400;-2.342;2022-10-15T02:45:39;10.13;;;3.80;;
53890;SDS011;41337;51.400;-2.342;2022-10-15T02:50:40;10.93;;;3.88;;
53890;SDS011;41337;51.400;-2.342;2022-10-15T02:55:47;9.40;;;3.60;;
53890;SDS011;41337;51.400;-2.342;2022-10-15T03:00:48;8.73;;;3.35;;
53890;SDS011;41337;51.400;-2.342;2022-10-15T03:05:49;8.13;;;2.80;;
53890;SDS011;41337;51.400;-2.342;2022-10-15T03:10:50;5.57;;;3.15;;
53890;SDS011;41337;51.400;-2.342;2022-10-15T03:15:50;9.52;;;3.33;;
53890;SDS011;41337;51.400;-2.342;2022-10-15T03:20:52;8.13;;;3.70;;
53890;SDS011;41337;51.400;-2.342;2022-10-15T03:25:54;11.80;;;3.65;;
53890;SDS011;41337;51.400;-2.342;2022-10-15T03:31:01;7.50;;;3.70;;
53890;SDS011;41337;51.400;-2.342;2022-10-15T03:36:02;9.43;;;3.72;;
53890;SDS011;41337;51.400;-2.342;2022-10-15T03:41:04;8.60;;;3.60;;
53890;SDS011;41337;51.400;-2.342;2022-10-15T03:46:04;10.48;;;3.92;;
53890;SDS011;41337;51.400;-2.342;2022-10-15T03:51:05;11.45;;;4.25;;
53890;SDS011;41337;51.400;-2.342;2022-10-15T03:56:06;10.60;;;4.05;;
53890;SDS011;41337;51.400;-2.342;2022-10-15T04:01:08;12.32;;;4.55;;
53890;SDS011;41337;51.400;-2.342;2022-10-15T04:06:14;7.95;;;4.53;;
53890;SDS011;41337;51.400;-2.342;2022-10-15T04:11:14;10.00;;;5.50;;
53890;SDS011;41337;51.400;-2.342;2022-10-15T04:16:16;10.02;;;5.80;;
53890;SDS011;41337;51.400;-2.342;2022-10-15T04:21:17;11.88;;;4.55;;
53890;SDS011;41337;51.400;-2.342;2022-10-15T04:26:18;7.68;;;4.60;;
53890;SDS011;41337;51.400;-2.342;2022-10-15T04:31:18;11.00;;;4.70;;
53890;SDS011;41337;51.400;-2.342;2022-10-15T04:36:19;6.07;;;2.60;;
53890;SDS011;41337;51.400;-2.342;2022-10-15T04:41:20;4.55;;;2.30;;
53890;SDS011;41337;51.400;-2.342;2022-10-15T04:46:21;5.07;;;1.95;;
53890;SDS011;41337;51.400;-2.342;2022-10-15T04:51:22;4.78;;;1.80;;
53890;SDS011;41337;51.400;-2.342;2022-10-15T04:56:23;4.38;;;1.77;;
53890;SDS011;41337;51.400;-2.342;2022-10-15T05:01:24;3.38;;;1.90;;
53890;SDS011;41337;51.400;-2.342;2022-10-15T05:06:25;2.35;;;1.45;;
53890;SDS011;41337;51.400;-2.342;2022-10-15T05:11:26;1.95;;;1.27;;
53890;SDS011;41337;51.400;-2.342;2022-10-15T05:16:28;7.28;;;1.98;;
53890;SDS011;41337;51.400;-2.342;2022-10-15T05:21:33;3.35;;;1.15;;
53890;SDS011;41337;51.400;-2.342;2022-10-15T05:26:35;2.60;;;0.90;;
53890;SDS011;41337;51.400;-2.342;2022-10-15T05:31:36;3.42;;;0.80;;
53890;SDS011;41337;51.400;-2.342;2022-10-15T05:36:37;3.47;;;0.93;;
53890;SDS011;41337;51.400;-2.342;2022-10-15T05:41:38;2.25;;;0.90;;
53890;SDS011;41337;51.400;-2.342;2022-10-15T05:46:38;1.08;;;0.60;;
53890;SDS011;41337;51.400;-2.342;2022-10-15T05:51:39;2.08;;;0.73;;
53890;SDS011;41337;51.400;-2.342;2022-10-15T05:56:40;2.28;;;0.50;;
53890;SDS011;41337;51.400;-2.342;2022-10-15T06:01:41;1.48;;;0.45;;
53890;SDS011;41337;51.400;-2.342;2022-10-15T06:06:42;0.63;;;0.40;;
53890;SDS011;41337;51.400;-2.342;2022-10-15T06:11:42;1.65;;;0.35;;
53890;SDS011;41337;51.400;-2.342;2022-10-15T06:16:43;0.75;;;0.60;;
53890;SDS011;41337;51.400;-2.342;2022-10-15T06:21:45;1.63;;;0.50;;
53890;SDS011;41337;51.400;-2.342;2022-10-15T06:26:45;0.60;;;0.52;;
53890;SDS011;41337;51.400;-2.342;2022-10-15T06:31:46;0.95;;;0.68;;
53890;SDS011;41337;51.400;-2.342;2022-10-15T06:36:47;1.83;;;0.55;;
53890;SDS011;41337;51.400;-2.342;2022-10-15T06:41:48;0.80;;;0.43;;
53890;SDS011;41337;51.400;-2.342;2022-10-15T06:46:55;1.05;;;0.47;;
53890;SDS011;41337;51.400;-2.342;2022-10-15T06:51:58;0.73;;;0.70;;
53890;SDS011;41337;51.400;-2.342;2022-10-15T06:56:58;1.25;;;0.90;;
53890;SDS011;41337;51.400;-2.342;2022-10-15T07:01:59;2.35;;;0.70;;
53890;SDS011;41337;51.400;-2.342;2022-10-15T07:07:00;3.60;;;1.38;;
53890;SDS011;41337;51.400;-2.342;2022-10-15T07:12:01;2.00;;;1.13;;
53890;SDS011;41337;51.400;-2.342;2022-10-15T07:17:08;3.08;;;1.02;;
53890;SDS011;41337;51.400;-2.342;2022-10-15T07:22:09;1.17;;;0.70;;
53890;SDS011;41337;51.400;-2.342;2022-10-15T07:27:10;2.05;;;0.80;;
53890;SDS011;41337;51.400;-2.342;2022-10-15T07:32:11;1.67;;;0.80;;
53890;SDS011;41337;51.400;-2.342;2022-10-15T07:37:12;1.45;;;0.65;;
53890;SDS011;41337;51.400;-2.342;2022-10-15T07:42:13;3.55;;;0.77;;
53890;SDS011;41337;51.400;-2.342;2022-10-15T07:47:13;1.55;;;0.40;;
53890;SDS011;41337;51.400;-2.342;2022-10-15T07:52:14;1.05;;;0.50;;
53890;SDS011;41337;51.400;-2.342;2022-10-15T07:57:16;5.55;;;0.85;;
53890;SDS011;41337;51.400;-2.342;2022-10-15T08:02:18;3.45;;;1.05;;
53890;SDS011;41337;51.400;-2.342;2022-10-15T08:07:22;1.80;;;0.50;;
53890;SDS011;41337;51.400;-2.342;2022-10-15T08:12:23;3.25;;;0.40;;
53890;SDS011;41337;51.400;-2.342;2022-10-15T08:17:24;4.78;;;0.50;;
53890;SDS011;41337;51.400;-2.342;2022-10-15T08:22:25;4.80;;;0.50;;
53890;SDS011;41337;51.400;-2.342;2022-10-15T08:27:26;2.15;;;0.30;;
53890;SDS011;41337;51.400;-2.342;2022-10-15T08:32:27;0.90;;;0.30;;
53890;SDS011;41337;51.400;-2.342;2022-10-15T08:37:27;1.80;;;0.65;;
53890;SDS011;41337;51.400;-2.342;2022-10-15T08:42:32;1.95;;;0.52;;
53890;SDS011;41337;51.400;-2.342;2022-10-15T08:47:47;0.68;;;0.30;;
53890;SDS011;41337;51.400;-2.342;2022-10-15T08:53:00;1.88;;;0.50;;
53890;SDS011;41337;51.400;-2.342;2022-10-15T08:58:11;1.75;;;0.98;;
53890;SDS011;41337;51.400;-2.342;2022-10-15T09:08:50;4.72;;;0.70;;
53890;SDS011;41337;51.400;-2.342;2022-10-15T09:14:13;2.17;;;0.47;;
53890;SDS011;41337;51.400;-2.342;2022-10-15T09:19:41;2.63;;;0.30;;
53890;SDS011;41337;51.400;-2.342;2022-10-15T09:24:51;3.05;;;0.32;;
53890;SDS011;41337;51.400;-2.342;2022-10-15T09:46:15;4.68;;;0.43;;
53890;SDS011;41337;51.400;-2.342;2022-10-15T09:51:28;3.50;;;0.30;;
53890;SDS011;41337;51.400;-2.342;2022-10-15T09:56:55;3.10;;;0.60;;
53890;SDS011;41337;51.400;-2.342;2022-10-15T10:02:04;1.65;;;0.20;;
53890;SDS011;41337;51.400;-2.342;2022-10-15T10:07:30;0.65;;;0.32;;
53890;SDS011;41337;51.400;-2.342;2022-10-15T10:12:39;2.83;;;0.50;;
53890;SDS011;41337;51.400;-2.342;2022-10-15T10:17:43;2.85;;;0.50;;
53890;SDS011;41337;51.400;-2.342;2022-10-15T10:22:53;3.22;;;0.40;;
53890;SDS011;41337;51.400;-2.342;2022-10-15T10:33:11;7.82;;;0.80;;
53890;SDS011;41337;51.400;-2.342;2022-10-15T10:38:22;6.45;;;0.85;;
53890;SDS011;41337;51.400;-2.342;2022-10-15T10:43:32;8.40;;;0.80;;
53890;SDS011;41337;51.400;-2.342;2022-10-15T10:53:50;6.72;;;1.10;;
53890;SDS011;41337;51.400;-2.342;2022-10-15T10:58:58;9.65;;;1.05;;
53890;SDS011;41337;51.400;-2.342;2022-10-15T11:04:26;7.20;;;0.60;;
53890;SDS011;41337;51.400;-2.342;2022-10-15T11:20:27;2.80;;;0.52;;
53890;SDS011;41337;51.400;-2.342;2022-10-15T11:25:54;2.83;;;0.90;;
53890;SDS011;41337;51.400;-2.342;2022-10-15T11:31:15;4.95;;;0.65;;
53890;SDS011;41337;51.400;-2.342;2022-10-15T11:57:45;6.72;;;0.90;;
53890;SDS011;41337;51.400;-2.342;2022-10-15T12:02:53;5.32;;;0.90;;
53890;SDS011;41337;51.400;-2.342;2022-10-15T12:07:56;7.53;;;1.05;;
53890;SDS011;41337;51.400;-2.342;2022-10-15T12:23:50;7.65;;;1.58;;
53890;SDS011;41337;51.400;-2.342;2022-10-15T12:28:51;6.35;;;1.02;;
53890;SDS011;41337;51.400;-2.342;2022-10-15T12:33:59;5.38;;;0.82;;
53890;SDS011;41337;51.400;-2.342;2022-10-15T12:39:04;7.82;;;1.02;;
53890;SDS011;41337;51.400;-2.342;2022-10-15T12:44:38;6.35;;;1.10;;
53890;SDS011;41337;51.400;-2.342;2022-10-15T12:54:40;4.68;;;1.17;;
53890;SDS011;41337;51.400;-2.342;2022-10-15T13:04:47;7.00;;;1.10;;
53890;SDS011;41337;51.400;-2.342;2022-10-15T13:09:48;5.97;;;1.25;;
53890;SDS011;41337;51.400;-2.342;2022-10-15T13:14:54;7.55;;;1.27;;
53890;SDS011;41337;51.400;-2.342;2022-10-15T13:20:07;9.05;;;1.23;;
53890;SDS011;41337;51.400;-2.342;2022-10-15T13:25:36;8.07;;;1.70;;
53890;SDS011;41337;51.400;-2.342;2022-10-15T13:30:38;6.18;;;1.40;;
53890;SDS011;41337;51.400;-2.342;2022-10-15T13:35:48;4.82;;;1.95;;
53890;SDS011;41337;51.400;-2.342;2022-10-15T13:40:50;6.35;;;1.60;;
53890;SDS011;41337;51.400;-2.342;2022-10-15T13:45:57;5.55;;;1.40;;
53890;SDS011;41337;51.400;-2.342;2022-10-15T13:51:05;8.95;;;1.25;;
53890;SDS011;41337;51.400;-2.342;2022-10-15T13:56:28;5.68;;;1.40;;
53890;SDS011;41337;51.400;-2.342;2022-10-15T14:01:34;6.10;;;1.60;;
53890;SDS011;41337;51.400;-2.342;2022-10-15T14:06:36;7.03;;;1.38;;
53890;SDS011;41337;51.400;-2.342;2022-10-15T14:11:37;10.98;;;1.92;;
53890;SDS011;41337;51.400;-2.342;2022-10-15T14:16:40;13.65;;;1.92;;
53890;SDS011;41337;51.400;-2.342;2022-10-15T14:21:46;10.13;;;1.85;;
53890;SDS011;41337;51.400;-2.342;2022-10-15T14:26:51;9.30;;;2.08;;
53890;SDS011;41337;51.400;-2.342;2022-10-15T14:32:01;8.43;;;2.05;;
53890;SDS011;41337;51.400;-2.342;2022-10-15T14:42:46;10.07;;;1.48;;
53890;SDS011;41337;51.400;-2.342;2022-10-15T14:53:27;8.65;;;1.65;;
53890;SDS011;41337;51.400;-2.342;2022-10-15T14:58:30;6.82;;;1.42;;
53890;SDS011;41337;51.400;-2.342;2022-10-15T15:03:42;24.58;;;2.22;;
53890;SDS011;41337;51.400;-2.342;2022-10-15T15:08:54;8.68;;;2.08;;
53890;SDS011;41337;51.400;-2.342;2022-10-15T15:13:55;6.60;;;1.67;;
53890;SDS011;41337;51.400;-2.342;2022-10-15T15:18:56;14.90;;;2.13;;
53890;SDS011;41337;51.400;-2.342;2022-10-15T15:23:58;14.88;;;2.20;;
53890;SDS011;41337;51.400;-2.342;2022-10-15T15:28:58;10.48;;;1.55;;
53890;SDS011;41337;51.400;-2.342;2022-10-15T15:33:59;19.25;;;1.88;;
53890;SDS011;41337;51.400;-2.342;2022-10-15T15:39:00;10.38;;;1.70;;
53890;SDS011;41337;51.400;-2.342;2022-10-15T15:44:01;7.95;;;1.88;;
53890;SDS011;41337;51.400;-2.342;2022-10-15T15:49:07;11.15;;;1.70;;
53890;SDS011;41337;51.400;-2.342;2022-10-15T15:54:09;8.38;;;1.73;;
53890;SDS011;41337;51.400;-2.342;2022-10-15T15:59:10;10.32;;;1.70;;
53890;SDS011;41337;51.400;-2.342;2022-10-15T16:04:11;8.73;;;2.40;;
53890;SDS011;41337;51.400;-2.342;2022-10-15T16:09:12;8.70;;;2.67;;
53890;SDS011;41337;51.400;-2.342;2022-10-15T16:14:13;11.75;;;2.25;;
53890;SDS011;41337;51.400;-2.342;2022-10-15T16:19:13;10.27;;;2.15;;
53890;SDS011;41337;51.400;-2.342;2022-10-15T16:24:20;8.70;;;2.35;;
53890;SDS011;41337;51.400;-2.342;2022-10-15T16:29:21;16.17;;;2.67;;
53890;SDS011;41337;51.400;-2.342;2022-10-15T16:34:22;13.77;;;2.80;;
53890;SDS011;41337;51.400;-2.342;2022-10-15T16:39:24;13.40;;;2.63;;
53890;SDS011;41337;51.400;-2.342;2022-10-15T16:44:24;16.25;;;2.42;;
53890;SDS011;41337;51.400;-2.342;2022-10-15T16:49:29;9.38;;;2.28;;
53890;SDS011;41337;51.400;-2.342;2022-10-15T16:54:30;7.88;;;2.33;;
53890;SDS011;41337;51.400;-2.342;2022-10-15T16:59:31;10.13;;;3.15;;
53890;SDS011;41337;51.400;-2.342;2022-10-15T17:04:32;17.42;;;3.38;;
53890;SDS011;41337;51.400;-2.342;2022-10-15T17:09:33;12.20;;;2.25;;
53890;SDS011;41337;51.400;-2.342;2022-10-15T17:14:34;10.88;;;2.90;;
53890;SDS011;41337;51.400;-2.342;2022-10-15T17:19:35;12.82;;;2.92;;
53890;SDS011;41337;51.400;-2.342;2022-10-15T17:24:35;8.43;;;3.10;;
53890;SDS011;41337;51.400;-2.342;2022-10-15T17:29:36;11.15;;;3.30;;
53890;SDS011;41337;51.400;-2.342;2022-10-15T17:34:37;14.05;;;2.72;;
53890;SDS011;41337;51.400;-2.342;2022-10-15T17:39:44;9.45;;;2.40;;
53890;SDS011;41337;51.400;-2.342;2022-10-15T17:44:45;20.45;;;3.17;;
53890;SDS011;41337;51.400;-2.342;2022-10-15T17:49:45;11.05;;;3.00;;
53890;SDS011;41337;51.400;-2.342;2022-10-15T17:54:46;12.80;;;2.72;;
53890;SDS011;41337;51.400;-2.342;2022-10-15T17:59:47;8.95;;;2.00;;
53890;SDS011;41337;51.400;-2.342;2022-10-15T18:04:48;14.60;;;3.03;;
53890;SDS011;41337;51.400;-2.342;2022-10-15T18:09:49;13.50;;;2.53;;
53890;SDS011;41337;51.400;-2.342;2022-10-15T18:14:51;9.63;;;2.20;;
53890;SDS011;41337;51.400;-2.342;2022-10-15T18:19:56;14.80;;;2.75;;
53890;SDS011;41337;51.400;-2.342;2022-10-15T18:24:57;12.52;;;2.65;;
53890;SDS011;41337;51.400;-2.342;2022-10-15T18:29:58;15.27;;;2.75;;
53890;SDS011;41337;51.400;-2.342;2022-10-15T18:34:59;14.18;;;2.92;;
53890;SDS011;41337;51.400;-2.342;2022-10-15T18:40:01;13.10;;;2.38;;
53890;SDS011;41337;51.400;-2.342;2022-10-15T18:45:09;14.35;;;3.58;;
53890;SDS011;41337;51.400;-2.342;2022-10-15T18:50:11;15.38;;;2.33;;
53890;SDS011;41337;51.400;-2.342;2022-10-15T18:55:15;15.80;;;3.05;;
53890;SDS011;41337;51.400;-2.342;2022-10-15T19:00:16;12.38;;;3.10;;
53890;SDS011;41337;51.400;-2.342;2022-10-15T19:05:17;15.10;;;2.90;;
53890;SDS011;41337;51.400;-2.342;2022-10-15T19:10:18;20.88;;;4.03;;
53890;SDS011;41337;51.400;-2.342;2022-10-15T19:15:19;17.50;;;3.70;;
53890;SDS011;41337;51.400;-2.342;2022-10-15T19:20:20;31.27;;;4.22;;
53890;SDS011;41337;51.400;-2.342;2022-10-15T19:25:21;23.20;;;4.78;;
53890;SDS011;41337;51.400;-2.342;2022-10-15T19:30:22;20.05;;;3.95;;
53890;SDS011;41337;51.400;-2.342;2022-10-15T19:35:22;23.85;;;5.00;;
53890;SDS011;41337;51.400;-2.342;2022-10-15T19:40:23;22.52;;;4.70;;
53890;SDS011;41337;51.400;-2.342;2022-10-15T19:45:24;23.40;;;4.60;;
53890;SDS011;41337;51.400;-2.342;2022-10-15T19:50:25;22.50;;;5.72;;
53890;SDS011;41337;51.400;-2.342;2022-10-15T19:55:25;18.30;;;4.72;;
53890;SDS011;41337;51.400;-2.342;2022-10-15T20:00:26;20.08;;;4.88;;
53890;SDS011;41337;51.400;-2.342;2022-10-15T20:05:31;14.23;;;3.40;;
53890;SDS011;41337;51.400;-2.342;2022-10-15T20:10:32;18.42;;;4.22;;
53890;SDS011;41337;51.400;-2.342;2022-10-15T20:15:33;21.02;;;4.07;;
53890;SDS011;41337;51.400;-2.342;2022-10-15T20:20:37;19.75;;;3.33;;
53890;SDS011;41337;51.400;-2.342;2022-10-15T20:25:44;19.05;;;2.42;;
53890;SDS011;41337;51.400;-2.342;2022-10-15T20:30:45;22.67;;;3.22;;
53890;SDS011;41337;51.400;-2.342;2022-10-15T20:35:48;19.25;;;2.90;;
53890;SDS011;41337;51.400;-2.342;2022-10-15T20:40:49;10.43;;;2.80;;
53890;SDS011;41337;51.400;-2.342;2022-10-15T20:45:56;20.85;;;3.15;;
53890;SDS011;41337;51.400;-2.342;2022-10-15T20:50:57;23.77;;;3.13;;
53890;SDS011;41337;51.400;-2.342;2022-10-15T20:56:00;20.17;;;3.03;;
53890;SDS011;41337;51.400;-2.342;2022-10-15T21:01:06;20.50;;;2.45;;
53890;SDS011;41337;51.400;-2.342;2022-10-15T21:06:07;8.82;;;1.70;;
53890;SDS011;41337;51.400;-2.342;2022-10-15T21:11:08;21.92;;;2.50;;
53890;SDS011;41337;51.400;-2.342;2022-10-15T21:16:09;19.85;;;2.45;;
53890;SDS011;41337;51.400;-2.342;2022-10-15T21:21:11;12.55;;;2.45;;
53890;SDS011;41337;51.400;-2.342;2022-10-15T21:26:17;11.68;;;2.45;;
53890;SDS011;41337;51.400;-2.342;2022-10-15T21:31:19;10.88;;;1.55;;
53890;SDS011;41337;51.400;-2.342;2022-10-15T21:36:23;17.35;;;2.55;;
53890;SDS011;41337;51.400;-2.342;2022-10-15T21:41:29;11.75;;;2.45;;
53890;SDS011;41337;51.400;-2.342;2022-10-15T21:46:31;16.77;;;2.22;;
53890;SDS011;41337;51.400;-2.342;2022-10-15T21:51:33;10.40;;;1.95;;
53890;SDS011;41337;51.400;-2.342;2022-10-15T21:56:40;13.60;;;1.97;;
53890;SDS011;41337;51.400;-2.342;2022-10-15T22:01:44;8.65;;;1.60;;
53890;SDS011;41337;51.400;-2.342;2022-10-15T22:06:51;17.70;;;2.60;;
53890;SDS011;41337;51.400;-2.342;2022-10-15T22:11:52;10.07;;;1.50;;
53890;SDS011;41337;51.400;-2.342;2022-10-15T22:16:53;11.32;;;2.08;;
53890;SDS011;41337;51.400;-2.342;2022-10-15T22:21:54;11.73;;;1.65;;
53890;SDS011;41337;51.400;-2.342;2022-10-15T22:26:55;12.43;;;2.35;;
53890;SDS011;41337;51.400;-2.342;2022-10-15T22:31:55;7.63;;;1.45;;
53890;SDS011;41337;51.400;-2.342;2022-10-15T22:36:57;10.77;;;1.95;;
53890;SDS011;41337;51.400;-2.342;2022-10-15T22:42:04;10.43;;;1.50;;
53890;SDS011;41337;51.400;-2.342;2022-10-15T22:47:05;11.13;;;1.90;;
53890;SDS011;41337;51.400;-2.342;2022-10-15T22:52:06;12.65;;;2.13;;
53890;SDS011;41337;51.400;-2.342;2022-10-15T22:57:07;11.93;;;1.92;;
53890;SDS011;41337;51.400;-2.342;2022-10-15T23:02:08;8.30;;;1.70;;
53890;SDS011;41337;51.400;-2.342;2022-10-15T23:07:09;13.68;;;2.00;;
53890;SDS011;41337;51.400;-2.342;2022-10-15T23:12:09;15.93;;;2.72;;
53890;SDS011;41337;51.400;-2.342;2022-10-15T23:17:10;10.85;;;2.10;;
53890;SDS011;41337;51.400;-2.342;2022-10-15T23:22:11;13.15;;;1.92;;
53890;SDS011;41337;51.400;-2.342;2022-10-15T23:27:12;12.85;;;1.73;;
53890;SDS011;41337;51.400;-2.342;2022-10-15T23:32:17;17.70;;;2.05;;
53890;SDS011;41337;51.400;-2.342;2022-10-15T23:37:17;11.65;;;1.50;;
53890;SDS011;41337;51.400;-2.342;2022-10-15T23:42:18;10.57;;;2.17;;
53890;SDS011;41337;51.400;-2.342;2022-10-15T23:47:19;14.20;;;2.78;;
53890;SDS011;41337;51.400;-2.342;2022-10-15T23:52:20;13.52;;;2.00;;
53890;SDS011;41337;51.400;-2.342;2022-10-15T23:57:21;16.00;;;1.90;;
